.
WxDataArchive / Data Records for 2013-09-20
2013-09-19 September 2013 2013-09-21

Data Records for Friday, 20 September 2013

Time	Temp	Chill	HIndex	Humid	Dewpt	 Wind 	HiWind	WindDir	Rain 	Barom 
-----	----	-----	------	-----	-----	------	------	-------	-----	----- 
00:00	69.8	69.8	69.8	91	67.0	0	2	90	0.00	29.888 
00:05	69.9	69.9	69.9	91	67.1	0	1	90	0.00	29.888 
00:10	69.8	69.8	69.8	91	67.0	0	1	90	0.00	29.888 
00:15	69.8	69.8	69.8	91	67.0	0	1	90	0.00	29.887 
00:20	69.8	69.8	69.8	91	67.0	0	1	90	0.00	29.887 
00:25	69.8	69.8	69.8	91	67.0	0	0	---	0.00	29.887 
00:30	69.8	69.8	69.8	92	67.4	0	1	90	0.00	29.885 
00:35	69.8	69.8	69.8	92	67.4	0	1	90	0.00	29.885 
00:40	69.8	69.8	69.8	92	67.4	0	1	90	0.00	29.885 
00:45	69.8	69.8	69.8	92	67.4	0	1	90	0.00	29.887 
00:50	69.8	69.8	69.8	92	67.4	0	1	90	0.00	29.887 
00:55	69.8	69.8	69.8	92	67.4	0	1	90	0.00	29.887 
01:00	69.9	69.9	69.9	92	67.5	0	0	---	0.00	29.892 
01:05	69.9	69.9	69.9	92	67.5	0	0	---	0.00	29.892 
01:10	69.9	69.9	69.9	92	67.5	0	1	90	0.00	29.892 
01:15	70.1	70.1	70.1	92	67.7	0	1	90	0.00	29.897 
01:20	70.1	70.1	70.1	92	67.7	0	1	90	0.00	29.897 
01:25	70.1	70.1	70.1	92	67.7	0	1	90	0.00	29.897 
01:30	70.1	70.1	70.1	92	67.7	0	1	90	0.00	29.892 
01:35	70.1	70.1	70.1	92	67.7	0	1	90	0.00	29.892 
01:40	70.1	70.1	70.1	92	67.7	0	1	90	0.00	29.892 
01:45	70.3	70.3	70.3	92	67.9	0	1	90	0.00	29.895 
01:50	70.3	70.3	70.3	92	67.9	0	1	90	0.00	29.895 
01:55	70.3	70.3	70.3	92	67.9	0	1	90	0.00	29.895 
02:00	70.3	70.3	70.3	92	67.9	0	1	90	0.00	29.893 
02:05	70.3	70.3	70.3	92	67.9	0	1	90	0.00	29.893 
02:10	70.3	70.3	70.3	92	67.9	0	1	90	0.00	29.893 
02:15	70.3	70.3	70.3	92	67.9	0	1	90	0.00	29.892 
02:20	70.3	70.3	70.3	92	67.9	0	1	90	0.00	29.892 
02:25	70.3	70.3	70.3	92	67.9	0	0	---	0.00	29.892 
02:30	70.3	70.3	70.3	93	68.2	0	1	90	0.00	29.888 
02:35	70.4	70.4	70.4	93	68.3	0	2	90	0.00	29.888 
02:40	70.4	70.4	70.4	93	68.3	0	1	90	0.00	29.888 
02:45	70.6	70.6	70.6	93	68.5	0	1	90	0.00	29.877 
02:50	70.6	70.6	70.6	93	68.5	0	1	90	0.00	29.877 
02:55	70.8	70.8	70.8	93	68.7	0	0	---	0.00	29.877 
03:00	70.8	70.8	70.8	93	68.7	0	1	90	0.00	29.868 
03:05	70.8	70.8	70.8	93	68.7	0	1	90	0.00	29.868 
03:10	70.9	70.9	70.9	93	68.8	0	1	90	0.00	29.868 
03:15	70.9	70.9	70.9	93	68.8	0	1	90	0.00	29.860 
03:20	70.9	70.9	70.9	93	68.8	0	2	292	0.00	29.860 
03:25	70.9	70.9	70.9	93	68.8	0	1	292	0.00	29.860 
03:30	70.9	70.9	70.9	93	68.8	0	1	292	0.00	29.858 
03:35	70.9	70.9	70.9	93	68.8	0	1	292	0.00	29.858 
03:40	71.1	71.1	71.1	93	69.0	0	1	292	0.00	29.858 
03:45	71.1	71.1	71.1	93	69.0	0	1	292	0.00	29.858 
03:50	71.1	71.1	71.1	93	69.0	0	1	292	0.00	29.858 
03:55	71.3	71.3	71.3	93	69.2	0	1	292	0.00	29.858 
04:00	71.3	71.3	71.3	92	68.8	0	1	292	0.00	29.858 
04:05	71.3	71.3	71.3	92	68.8	0	2	292	0.00	29.858 
04:10	71.3	71.3	71.3	92	68.8	0	1	292	0.00	29.858 
04:15	71.3	71.3	71.3	92	68.8	0	1	292	0.00	29.856 
04:20	71.5	71.5	71.5	92	69.0	0	1	292	0.01	29.856 
04:25	71.5	71.5	71.5	92	69.0	0	1	292	0.00	29.856 
04:30	71.5	71.5	71.5	92	69.0	0	1	292	0.00	29.846 
04:35	71.6	71.6	71.6	92	69.1	0	2	0	0.00	29.846 
04:40	71.6	71.6	71.6	92	69.1	0	1	315	0.00	29.846 
04:45	71.8	71.8	71.8	92	69.3	0	1	315	0.00	29.843 
04:50	71.8	71.8	71.8	92	69.3	0	3	315	0.00	29.843 
04:55	72.0	72.0	72.0	92	69.5	0	1	315	0.00	29.843 
05:00	72.0	72.0	72.0	92	69.5	0	1	315	0.00	29.842 
05:05	72.0	72.0	72.0	92	69.5	0	1	315	0.00	29.842 
05:10	72.0	72.0	72.0	91	69.2	0	3	225	0.00	29.842 
05:15	72.1	72.1	72.1	91	69.3	0	1	225	0.00	29.840 
05:20	72.1	72.1	72.1	91	69.3	0	1	225	0.00	29.840 
05:25	72.3	72.3	72.3	91	69.5	0	2	248	0.00	29.840 
05:30	72.3	72.3	72.3	91	69.5	0	1	248	0.00	29.834 
05:35	72.3	72.3	72.3	90	69.2	0	1	248	0.00	29.834 
05:40	72.3	72.3	72.3	90	69.2	0	2	248	0.00	29.834 
05:45	72.3	72.3	72.3	90	69.2	0	1	248	0.00	29.837 
05:50	72.3	72.3	72.3	90	69.2	0	1	248	0.00	29.837 
05:55	72.3	72.3	72.3	90	69.2	0	2	270	0.00	29.837 
06:00	72.3	72.3	72.3	90	69.2	0	2	270	0.00	29.832 
06:05	72.1	72.1	72.1	90	69.0	0	3	270	0.00	29.832 
06:10	72.1	72.1	72.1	90	69.0	0	1	270	0.00	29.832 
06:15	72.1	72.1	72.1	90	69.0	0	1	270	0.00	29.830 
06:20	72.1	72.1	72.1	89	68.7	0	2	315	0.00	29.830 
06:25	72.1	72.1	72.1	89	68.7	0	1	315	0.00	29.830 
06:30	72.0	72.0	72.0	89	68.6	0	1	315	0.00	29.832 
06:35	72.0	72.0	72.0	89	68.6	0	1	315	0.00	29.832 
06:40	71.8	71.8	71.8	89	68.4	0	1	315	0.00	29.832 
06:45	71.8	71.8	71.8	90	68.7	0	2	315	0.00	29.835 
06:50	71.8	71.8	71.8	90	68.7	0	1	315	0.00	29.835 
06:55	71.8	71.8	71.8	90	68.7	0	1	315	0.00	29.835 
07:00	71.6	71.6	71.6	90	68.5	0	2	225	0.00	29.828 
07:05	71.6	71.6	71.6	90	68.5	0	1	225	0.00	29.828 
07:10	71.6	71.6	71.6	90	68.5	0	2	225	0.00	29.828 
07:15	71.6	71.6	71.6	90	68.5	0	1	248	0.00	29.830 
07:20	71.6	71.6	71.6	90	68.5	0	4	292	0.00	29.830 
07:25	71.6	71.6	71.6	90	68.5	0	2	315	0.00	29.830 
07:30	71.6	71.6	71.6	90	68.5	0	2	315	0.00	29.828 
07:35	71.6	71.6	71.6	90	68.5	0	2	315	0.00	29.828 
07:40	71.6	71.6	71.6	90	68.5	0	2	315	0.00	29.828 
07:45	71.6	71.6	71.6	90	68.5	0	3	270	0.00	29.827 
07:50	71.6	71.6	71.6	89	68.2	0	2	248	0.00	29.827 
07:55	71.8	71.8	71.8	90	68.7	0	2	292	0.00	29.827 
08:00	71.8	71.8	71.8	89	68.4	0	1	292	0.00	29.828 
08:05	71.8	71.8	71.8	89	68.4	0	2	292	0.00	29.828 
08:10	71.8	71.8	71.8	89	68.4	0	2	292	0.00	29.828 
08:15	72.0	72.0	72.0	89	68.6	0	1	292	0.00	29.831 
08:20	72.1	72.1	72.1	89	68.7	0	2	292	0.00	29.831 
08:25	72.1	72.1	72.1	89	68.7	1	3	315	0.00	29.831 
08:30	72.3	72.3	72.3	88	68.5	1	3	270	0.00	29.836 
08:35	72.3	72.3	72.3	88	68.5	1	4	270	0.00	29.836 
08:40	72.5	72.5	72.5	88	68.7	0	1	270	0.00	29.836 
08:45	72.5	72.5	72.5	88	68.7	0	3	292	0.00	29.829 
08:50	72.5	72.5	72.5	88	68.7	0	2	292	0.00	29.829 
08:55	72.7	72.7	72.7	87	68.6	0	2	248	0.00	29.829 
09:00	72.7	72.7	72.7	87	68.6	1	3	248	0.00	29.830 
09:05	72.7	72.7	72.7	87	68.6	0	3	90	0.00	29.830 
09:10	72.7	72.7	72.7	87	68.6	0	2	292	0.00	29.830 
09:15	72.7	72.7	72.7	87	68.6	0	3	292	0.00	29.835 
09:20	72.8	72.8	72.8	87	68.7	0	2	248	0.00	29.835 
09:25	73.2	73.2	73.2	87	69.1	0	2	270	0.00	29.835 
09:30	73.3	73.3	73.3	86	68.8	0	2	338	0.00	29.840 
09:35	73.5	73.5	73.5	86	69.0	0	2	315	0.00	29.840 
09:40	73.7	73.7	73.7	85	68.9	0	2	315	0.00	29.840 
09:45	73.9	73.9	73.9	84	68.7	1	5	225	0.00	29.840 
09:50	74.2	74.2	74.2	84	69.0	0	2	225	0.00	29.840 
09:55	74.7	74.7	74.7	83	69.2	1	4	270	0.00	29.840 
10:00	75.1	75.1	75.5	82	69.2	1	3	292	0.00	29.840 
10:05	75.3	75.3	75.9	81	69.1	1	6	292	0.00	29.840 
10:10	75.4	75.4	76.1	80	68.8	1	5	270	0.00	29.840 
10:15	75.6	75.6	76.4	80	69.0	1	4	270	0.00	29.844 
10:20	75.8	75.8	76.7	80	69.2	0	2	270	0.00	29.844 
10:25	75.8	75.8	76.8	79	68.8	1	2	315	0.00	29.844 
10:30	75.6	75.6	76.5	79	68.6	1	5	270	0.00	29.839 
10:35	75.4	75.4	76.3	78	68.0	1	4	270	0.00	29.839 
10:40	75.6	75.6	76.6	78	68.2	1	3	248	0.00	29.839 
10:45	75.8	75.8	76.9	78	68.4	1	4	270	0.00	29.839 
10:50	76.0	76.0	77.2	78	68.6	1	3	270	0.00	29.839 
10:55	76.3	76.3	77.6	77	68.5	1	5	270	0.00	29.839 
11:00	76.5	76.5	77.9	77	68.7	1	3	270	0.00	29.835 
11:05	76.5	76.5	77.9	77	68.7	0	2	292	0.00	29.835 
11:10	76.7	76.7	78.2	77	68.9	1	7	112	0.00	29.835 
11:15	77.4	77.4	79.3	77	69.6	1	4	270	0.00	29.823 
11:20	77.9	77.9	80.0	74	68.9	1	4	270	0.00	29.823 
11:25	78.1	78.1	80.3	74	69.1	1	2	270	0.00	29.823 
11:30	78.1	78.1	80.3	73	68.7	1	4	270	0.00	29.819 
11:35	78.3	78.3	80.5	72	68.5	1	4	270	0.00	29.819 
11:40	78.6	78.6	80.9	71	68.4	2	4	270	0.00	29.819 
11:45	78.6	78.6	80.8	69	67.6	1	3	270	0.00	29.817 
11:50	78.5	78.5	80.7	69	67.5	1	4	248	0.00	29.817 
11:55	78.6	78.6	80.8	69	67.6	1	3	270	0.00	29.817 
12:00	78.6	78.6	80.8	69	67.6	2	5	270	0.00	29.819 
12:05	78.8	78.8	80.9	67	66.9	2	4	270	0.00	29.819 
12:10	78.6	78.6	80.8	69	67.6	2	5	270	0.00	29.819 
12:15	78.5	78.5	80.7	69	67.5	1	4	270	0.00	29.819 
12:20	78.5	78.5	80.7	70	67.9	1	2	270	0.00	29.819 
12:25	78.6	78.6	80.8	70	68.0	1	3	270	0.00	29.819 
12:30	79.0	79.0	81.3	69	67.9	1	4	270	0.00	29.817 
12:35	79.2	79.2	81.6	69	68.1	1	4	292	0.00	29.817 
12:40	79.0	79.0	81.3	68	67.5	1	3	292	0.00	29.817 
12:45	78.8	78.8	81.1	69	67.7	1	2	292	0.00	29.817 
12:50	78.5	78.5	80.7	69	67.5	1	4	270	0.00	29.817 
12:55	78.3	78.3	80.4	69	67.3	1	2	270	0.00	29.817 
13:00	78.1	78.1	80.1	69	67.1	0	2	225	0.00	29.814 
13:05	78.1	78.1	80.2	71	67.9	1	3	225	0.00	29.814 
13:10	78.1	78.1	80.2	71	67.9	1	3	248	0.00	29.814 
13:15	78.3	78.3	80.4	70	67.7	2	4	248	0.00	29.809 
13:20	78.3	78.3	80.4	69	67.3	2	3	248	0.00	29.809 
13:25	78.3	78.3	80.4	69	67.3	1	3	248	0.00	29.809 
13:30	78.3	78.3	80.4	70	67.7	2	6	292	0.00	29.805 
13:35	78.3	78.3	80.4	69	67.3	1	3	270	0.00	29.805 
13:40	78.1	78.1	80.1	69	67.1	1	5	270	0.00	29.805 
13:45	77.9	77.9	79.9	69	66.9	0	2	270	0.00	29.799 
13:50	77.9	77.9	79.8	68	66.5	0	3	270	0.00	29.799 
13:55	77.7	77.7	79.6	69	66.7	1	4	292	0.00	29.799 
14:00	77.7	77.7	79.6	69	66.7	0	2	292	0.00	29.792 
14:05	77.6	77.6	79.5	69	66.6	0	2	292	0.00	29.792 
14:10	77.4	77.4	79.3	70	66.8	0	1	292	0.00	29.792 
14:15	77.0	77.0	78.8	71	66.9	1	3	292	0.00	29.791 
14:20	76.7	76.7	78.3	73	67.4	0	2	292	0.00	29.791 
14:25	76.1	76.1	77.4	76	68.0	0	1	292	0.00	29.791 
14:30	75.3	75.3	76.3	77	67.6	2	4	292	0.01	29.791 
14:35	74.4	74.4	74.4	79	67.4	1	3	270	0.00	29.791 
14:40	73.9	73.9	73.9	80	67.3	1	5	270	0.00	29.791 
14:45	73.2	73.2	73.2	81	67.0	2	5	270	0.00	29.792 
14:50	72.8	72.8	72.8	83	67.3	0	1	270	0.00	29.792 
14:55	72.5	72.5	72.5	84	67.4	0	1	270	0.01	29.792 
15:00	72.1	72.1	72.1	85	67.3	0	1	270	0.00	29.787 
15:05	72.1	72.1	72.1	86	67.7	0	1	270	0.00	29.787 
15:10	72.1	72.1	72.1	87	68.0	0	1	270	0.00	29.787 
15:15	72.0	72.0	72.0	87	67.9	0	1	270	0.00	29.784 
15:20	71.8	71.8	71.8	87	67.7	0	1	270	0.00	29.784 
15:25	71.6	71.6	71.6	87	67.5	0	1	270	0.01	29.784 
15:30	71.6	71.6	71.6	87	67.5	0	1	270	0.00	29.778 
15:35	71.5	71.5	71.5	88	67.7	0	1	270	0.00	29.778 
15:40	71.3	71.3	71.3	88	67.6	0	1	270	0.00	29.778 
15:45	71.3	71.3	71.3	88	67.6	0	1	270	0.00	29.777 
15:50	71.1	71.1	71.1	89	67.7	0	1	270	0.00	29.777 
15:55	71.1	71.1	71.1	89	67.7	0	1	270	0.00	29.777 
16:00	71.1	71.1	71.1	89	67.7	0	1	270	0.00	29.778 
16:05	71.1	71.1	71.1	89	67.7	0	1	270	0.00	29.778 
16:10	70.9	70.9	70.9	89	67.5	0	1	270	0.01	29.778 
16:15	70.9	70.9	70.9	89	67.5	0	1	270	0.00	29.770 
16:20	70.9	70.9	70.9	90	67.8	0	1	270	0.00	29.770 
16:25	70.9	70.9	70.9	90	67.8	0	1	270	0.00	29.770 
16:30	71.1	71.1	71.1	90	68.0	0	1	270	0.00	29.766 
16:35	71.3	71.3	71.3	90	68.2	0	0	---	0.00	29.766 
16:40	71.3	71.3	71.3	90	68.2	0	1	270	0.00	29.766 
16:45	71.3	71.3	71.3	90	68.2	0	1	270	0.00	29.760 
16:50	71.5	71.5	71.5	90	68.4	0	1	270	0.00	29.760 
16:55	71.6	71.6	71.6	89	68.2	0	0	---	0.00	29.760 
17:00	71.6	71.6	71.6	89	68.2	0	1	270	0.00	29.756 
17:05	71.6	71.6	71.6	89	68.2	0	0	---	0.00	29.756 
17:10	71.6	71.6	71.6	89	68.2	0	1	270	0.00	29.756 
17:15	71.6	71.6	71.6	89	68.2	0	0	---	0.00	29.753 
17:20	71.6	71.6	71.6	89	68.2	0	0	---	0.00	29.753 
17:25	71.6	71.6	71.6	89	68.2	0	1	270	0.00	29.753 
17:30	71.6	71.6	71.6	89	68.2	0	1	270	0.00	29.753 
17:35	71.6	71.6	71.6	89	68.2	0	0	---	0.00	29.753 
17:40	71.6	71.6	71.6	89	68.2	0	1	270	0.00	29.753 
17:45	71.6	71.6	71.6	89	68.2	0	0	---	0.00	29.757 
17:50	71.6	71.6	71.6	89	68.2	0	0	---	0.00	29.757 
17:55	71.8	71.8	71.8	90	68.7	0	0	---	0.00	29.757 
18:00	71.8	71.8	71.8	90	68.7	0	1	270	0.00	29.759 
18:05	71.8	71.8	71.8	90	68.7	0	1	270	0.00	29.759 
18:10	71.8	71.8	71.8	90	68.7	0	1	270	0.00	29.759 
18:15	72.0	72.0	72.0	89	68.6	0	0	---	0.00	29.759 
18:20	72.0	72.0	72.0	89	68.6	0	0	---	0.00	29.759 
18:25	72.0	72.0	72.0	89	68.6	0	0	---	0.00	29.759 
18:30	72.0	72.0	72.0	89	68.6	0	1	270	0.00	29.757 
18:35	71.8	71.8	71.8	89	68.4	0	0	---	0.00	29.757 
18:40	71.8	71.8	71.8	89	68.4	0	0	---	0.00	29.757 
18:45	71.8	71.8	71.8	90	68.7	0	0	---	0.00	29.754 
18:50	71.6	71.6	71.6	90	68.5	0	0	---	0.00	29.754 
18:55	71.6	71.6	71.6	90	68.5	0	0	---	0.00	29.754 
19:00	71.6	71.6	71.6	90	68.5	0	0	---	0.00	29.754 
19:05	71.5	71.5	71.5	91	68.7	0	0	---	0.00	29.754 
19:10	71.5	71.5	71.5	91	68.7	0	0	---	0.00	29.754 
19:15	71.3	71.3	71.3	91	68.5	0	0	---	0.00	29.755 
19:20	71.3	71.3	71.3	91	68.5	0	0	---	0.00	29.755 
19:25	71.3	71.3	71.3	91	68.5	0	0	---	0.00	29.755 
19:30	71.1	71.1	71.1	91	68.3	0	1	270	0.00	29.755 
19:35	70.9	70.9	70.9	91	68.1	0	1	270	0.00	29.755 
19:40	70.4	70.4	70.4	90	67.3	0	3	270	0.00	29.755 
19:45	70.3	70.3	70.3	88	66.6	1	3	270	0.00	29.761 
19:50	70.3	70.3	70.3	87	66.2	0	2	270	0.00	29.761 
19:55	70.3	70.3	70.3	86	65.9	0	1	270	0.00	29.761 
20:00	70.1	70.1	70.1	85	65.4	0	1	270	0.00	29.759 
20:05	70.1	70.1	70.1	85	65.4	0	1	270	0.00	29.759 
20:10	69.9	69.9	69.9	85	65.2	0	1	270	0.00	29.759 
20:15	69.9	69.9	69.9	85	65.2	0	1	270	0.00	29.761 
20:20	69.8	69.8	69.8	85	65.1	0	1	270	0.00	29.761 
20:25	69.8	69.8	69.8	86	65.4	0	1	270	0.00	29.761 
20:30	69.6	69.6	69.6	87	65.6	0	1	270	0.01	29.761 
20:35	69.4	69.4	69.4	87	65.4	0	1	270	0.00	29.761 
20:40	69.3	69.3	69.3	88	65.6	0	1	270	0.00	29.761 
20:45	69.1	69.1	69.1	88	65.4	0	1	270	0.00	29.762 
20:50	69.1	69.1	69.1	88	65.4	0	2	270	0.00	29.762 
20:55	68.9	68.9	68.9	89	65.5	0	0	---	0.00	29.762 
21:00	68.9	68.9	68.9	89	65.5	0	1	270	0.01	29.761 
21:05	68.8	68.8	68.8	90	65.7	0	1	270	0.00	29.761 
21:10	68.6	68.6	68.6	90	65.5	0	1	270	0.01	29.761 
21:15	68.4	68.4	68.4	90	65.3	0	1	270	0.00	29.757 
21:20	68.4	68.4	68.4	91	65.7	0	0	---	0.00	29.757 
21:25	68.3	68.3	68.3	91	65.6	0	1	270	0.00	29.757 
21:30	68.3	68.3	68.3	91	65.6	0	1	270	0.01	29.762 
21:35	68.3	68.3	68.3	92	65.9	0	1	270	0.00	29.762 
21:40	68.3	68.3	68.3	92	65.9	0	1	270	0.00	29.762 
21:45	68.3	68.3	68.3	92	65.9	0	1	270	0.00	29.762 
21:50	68.1	68.1	68.1	92	65.7	0	1	270	0.00	29.762 
21:55	68.1	68.1	68.1	92	65.7	0	1	270	0.00	29.762 
22:00	68.1	68.1	68.1	93	66.0	0	0	---	0.01	29.756 
22:05	67.9	67.9	67.9	93	65.8	0	0	---	0.00	29.756 
22:10	67.9	67.9	67.9	93	65.8	0	0	---	0.00	29.756 
22:15	67.9	67.9	67.9	93	65.8	0	0	---	0.00	29.755 
22:20	67.8	67.8	67.8	93	65.7	0	0	---	0.00	29.755 
22:25	67.8	67.8	67.8	93	65.7	0	0	---	0.01	29.755 
22:30	67.8	67.8	67.8	93	65.7	0	1	270	0.01	29.751 
22:35	67.8	67.8	67.8	93	65.7	0	1	270	0.00	29.751 
22:40	67.6	67.6	67.6	93	65.5	0	1	270	0.01	29.751 
22:45	67.6	67.6	67.6	94	65.8	0	1	270	0.01	29.747 
22:50	67.4	67.4	67.4	94	65.6	0	1	270	0.01	29.747 
22:55	67.4	67.4	67.4	94	65.6	0	1	270	0.00	29.747 
23:00	67.3	67.3	67.3	94	65.5	0	1	270	0.01	29.748 
23:05	67.1	67.1	67.1	94	65.3	0	1	270	0.08	29.748 
23:10	66.8	66.8	66.8	94	65.0	0	2	270	0.02	29.748 
23:15	66.8	66.8	66.8	94	65.0	0	1	270	0.01	29.744 
23:20	66.6	66.6	66.6	94	64.8	0	1	270	0.00	29.744 
23:25	66.6	66.6	66.6	94	64.8	0	1	270	0.00	29.744 
23:30	66.6	66.6	66.6	94	64.8	0	0	---	0.00	29.742 
23:35	66.6	66.6	66.6	94	64.8	0	0	---	0.00	29.742 
23:40	66.6	66.6	66.6	94	64.8	0	0	---	0.00	29.742 
23:45	66.8	66.8	66.8	95	65.3	0	1	270	0.00	29.742 
23:50	66.8	66.8	66.8	95	65.3	0	1	270	0.00	29.742 
23:55	66.9	66.9	66.9	95	65.4	0	1	270	0.01	29.742 

CoCoRaHS
IN-AL-39
A2 Web Hosting
Creative Commons License
GoDaddy
search engine by freefind advanced

loaded 2018-11-22 06:05:53 • last modified 2010-11-18 10:43:29
Privacy PolicyDisclaimer
• wx.awcolley.com is powered by PmWiki v.2002016 •
• all content (unless otherwise noted) © 2018 A W Colley